createdAt,value
2023-03-06T00:00:45.357Z,-1.88
2023-03-06T00:03:13.622Z,-1.87
2023-03-06T00:05:43.248Z,-1.85
2023-03-06T00:08:11.860Z,-1.81
2023-03-06T00:10:49.759Z,-1.78
2023-03-06T00:13:26.926Z,-1.78
2023-03-06T00:15:57.759Z,-1.76
2023-03-06T00:18:28.257Z,-1.74
2023-03-06T00:21:02.390Z,-1.72
2023-03-06T00:23:33.111Z,-1.72
2023-03-06T00:26:02.168Z,-1.73
2023-03-06T00:28:31.679Z,-1.73
2023-03-06T00:31:02.720Z,-1.71
2023-03-06T00:33:38.082Z,-1.68
2023-03-06T00:36:06.720Z,-1.67
2023-03-06T00:38:35.824Z,-1.67
2023-03-06T00:41:08.831Z,-1.68
2023-03-06T00:43:37.343Z,-1.70
2023-03-06T00:46:06.595Z,-1.73
2023-03-06T00:48:35.649Z,-1.76
2023-03-06T00:51:13.464Z,-1.80
2023-03-06T00:53:42.100Z,-1.83
2023-03-06T00:56:10.643Z,-1.84
2023-03-06T00:58:40.505Z,-1.85
2023-03-06T01:01:08.934Z,-1.84
2023-03-06T01:03:37.904Z,-1.82
2023-03-06T01:06:08.089Z,-1.80
2023-03-06T01:08:37.678Z,-1.79
2023-03-06T01:11:06.912Z,-1.82
2023-03-06T01:13:35.278Z,-1.85
2023-03-06T01:16:10.632Z,-1.90
2023-03-06T01:18:39.806Z,-1.92
2023-03-06T01:21:08.052Z,-1.96
2023-03-06T01:23:38.998Z,-2.00
2023-03-06T01:26:07.362Z,-2.03
2023-03-06T01:28:37.627Z,-2.05
2023-03-06T01:31:06.008Z,-2.04
2023-03-06T01:33:35.569Z,-2.02
2023-03-06T01:36:07.179Z,-2.03
2023-03-06T01:38:35.750Z,-2.01
2023-03-06T01:41:04.040Z,-2.00
2023-03-06T01:43:35.911Z,-2.00
2023-03-06T01:46:24.625Z,-2.02
2023-03-06T01:48:54.405Z,-2.06
2023-03-06T01:51:23.332Z,-2.11
2023-03-06T01:53:51.502Z,-2.11
2023-03-06T01:56:19.986Z,-2.10
2023-03-06T01:58:49.896Z,-2.10
2023-03-06T02:01:18.230Z,-2.09
2023-03-06T02:03:47.589Z,-2.04
2023-03-06T02:06:21.979Z,-1.98
2023-03-06T02:08:50.317Z,-1.94
2023-03-06T02:11:22.006Z,-1.94
2023-03-06T02:13:51.497Z,-1.94
2023-03-06T02:16:20.710Z,-1.95
2023-03-06T02:18:52.100Z,-1.96
2023-03-06T02:21:26.390Z,-1.96
2023-03-06T02:23:58.327Z,-2.01
2023-03-06T02:26:26.785Z,-2.08
2023-03-06T02:28:57.615Z,-2.13
2023-03-06T02:31:26.947Z,-2.18
2023-03-06T02:34:07.509Z,-2.18
2023-03-06T02:36:39.771Z,-2.20
2023-03-06T02:39:08.444Z,-2.24
2023-03-06T02:41:36.697Z,-2.28
2023-03-06T02:44:05.440Z,-2.30
2023-03-06T02:46:33.834Z,-2.33
2023-03-06T02:49:02.106Z,-2.35
2023-03-06T02:51:31.199Z,-2.38
2023-03-06T02:53:59.712Z,-2.40
2023-03-06T02:56:28.002Z,-2.42
2023-03-06T02:58:56.384Z,-2.43
2023-03-06T03:01:26.062Z,-2.44
2023-03-06T03:03:55.553Z,-2.44
2023-03-06T03:06:24.530Z,-2.46
2023-03-06T03:08:52.858Z,-2.47
2023-03-06T03:11:22.815Z,-2.47
2023-03-06T03:13:51.419Z,-2.47
2023-03-06T03:16:25.479Z,-2.45
2023-03-06T03:19:01.985Z,-2.45
2023-03-06T03:21:30.417Z,-2.44
2023-03-06T03:23:58.689Z,-2.43
2023-03-06T03:26:28.195Z,-2.42
2023-03-06T03:29:05.206Z,-2.40
2023-03-06T03:31:35.228Z,-2.42
2023-03-06T03:34:03.678Z,-2.41
2023-03-06T03:36:34.350Z,-2.41
2023-03-06T03:39:04.303Z,-2.41
2023-03-06T03:41:34.017Z,-2.41
2023-03-06T03:44:04.398Z,-2.43
2023-03-06T03:46:37.101Z,-2.49
2023-03-06T03:49:06.986Z,-2.56
2023-03-06T03:51:35.681Z,-2.62
2023-03-06T03:54:06.800Z,-2.66
2023-03-06T03:56:40.410Z,-2.69
2023-03-06T03:59:12.667Z,-2.72
2023-03-06T04:01:47.108Z,-2.75
2023-03-06T04:04:15.824Z,-2.77
2023-03-06T04:06:44.820Z,-2.79
2023-03-06T04:09:14.364Z,-2.79
2023-03-06T04:11:43.736Z,-2.78
2023-03-06T04:14:12.720Z,-2.77
2023-03-06T04:16:41.232Z,-2.76
2023-03-06T04:19:10.008Z,-2.74
2023-03-06T04:21:39.896Z,-2.71
2023-03-06T04:24:09.166Z,-2.69
2023-03-06T04:26:37.439Z,-2.67
2023-03-06T04:29:05.975Z,-2.66
2023-03-06T04:31:38.653Z,-2.67
2023-03-06T04:34:07.526Z,-2.70
2023-03-06T04:36:36.521Z,-2.74
2023-03-06T04:39:09.469Z,-2.78
2023-03-06T04:41:39.393Z,-2.75
2023-03-06T04:44:07.737Z,-2.40
2023-03-06T04:46:36.245Z,-1.63
2023-03-06T04:49:05.097Z,-0.81
2023-03-06T04:51:33.750Z,-0.02
2023-03-06T04:54:03.597Z,0.73
2023-03-06T04:56:32.029Z,1.52
2023-03-06T04:59:00.490Z,2.35
2023-03-06T05:01:28.721Z,3.24
2023-03-06T05:03:58.388Z,4.09
2023-03-06T05:06:26.746Z,4.93
2023-03-06T05:08:54.982Z,5.54
2023-03-06T05:11:23.548Z,5.90
2023-03-06T05:13:51.864Z,6.40
2023-03-06T05:16:23.677Z,6.73
2023-03-06T05:18:52.614Z,7.10
2023-03-06T05:21:21.174Z,7.64
2023-03-06T05:23:49.490Z,8.18
2023-03-06T05:26:17.689Z,8.67
2023-03-06T05:28:46.000Z,9.16
2023-03-06T05:31:16.406Z,9.86
2023-03-06T05:33:44.629Z,10.65
2023-03-06T05:36:13.241Z,11.40
2023-03-06T05:38:45.791Z,11.99
2023-03-06T05:41:15.474Z,12.14
2023-03-06T05:43:43.827Z,12.34
2023-03-06T05:46:12.557Z,12.42
2023-03-06T05:48:41.001Z,12.69
2023-03-06T05:51:09.844Z,12.99
2023-03-06T05:53:38.179Z,13.44
2023-03-06T05:56:11.531Z,14.11
2023-03-06T05:58:41.850Z,14.58
2023-03-06T06:01:14.205Z,15.02
2023-03-06T06:03:43.817Z,15.25
2023-03-06T06:06:12.565Z,15.28
2023-03-06T06:08:44.403Z,15.01
2023-03-06T06:11:13.206Z,14.32
2023-03-06T06:13:45.488Z,13.95
2023-03-06T06:16:16.492Z,14.16
2023-03-06T06:18:45.198Z,14.49
2023-03-06T06:21:19.911Z,14.73
2023-03-06T06:23:48.507Z,14.83
2023-03-06T06:26:16.787Z,14.83
2023-03-06T06:28:44.962Z,14.76
2023-03-06T06:31:13.515Z,15.00
2023-03-06T06:33:43.144Z,15.30
2023-03-06T06:36:17.836Z,15.41
2023-03-06T06:38:46.154Z,15.65
2023-03-06T06:44:06.681Z,16.58
2023-03-06T06:47:20.779Z,16.58
2023-03-06T06:49:27.427Z,16.52
2023-03-06T06:51:57.059Z,16.32
2023-03-06T06:54:25.332Z,16.17
2023-03-06T06:56:53.626Z,16.33
2023-03-06T06:59:23.871Z,16.57
2023-03-06T07:01:52.385Z,16.70
2023-03-06T07:04:20.948Z,17.12
2023-03-06T07:06:49.193Z,17.33
2023-03-06T07:09:17.652Z,17.58
2023-03-06T07:11:45.932Z,17.58
2023-03-06T07:14:14.656Z,17.68
2023-03-06T07:16:43.600Z,18.06
2023-03-06T07:19:12.539Z,18.29
2023-03-06T07:21:40.839Z,18.11
2023-03-06T07:24:09.311Z,18.18
2023-03-06T07:26:37.698Z,18.34
2023-03-06T07:29:05.891Z,18.16
2023-03-06T07:31:34.166Z,17.65
2023-03-06T07:34:04.774Z,16.95
2023-03-06T07:36:34.135Z,16.39
2023-03-06T07:39:02.349Z,15.78
2023-03-06T07:41:30.468Z,14.89
2023-03-06T07:44:00.294Z,13.91
2023-03-06T07:46:29.191Z,13.26
2023-03-06T07:48:58.445Z,12.68
2023-03-06T07:51:26.640Z,12.42
2023-03-06T07:53:55.472Z,12.26
2023-03-06T07:56:23.648Z,12.06
2023-03-06T07:58:52.257Z,11.78
2023-03-06T08:01:21.085Z,11.60
2023-03-06T08:03:50.319Z,11.73
2023-03-06T08:06:22.425Z,11.62
2023-03-06T08:08:51.919Z,11.35
2023-03-06T08:11:21.187Z,11.34
2023-03-06T08:13:52.986Z,11.36
2023-03-06T08:16:21.830Z,11.25
2023-03-06T08:18:53.658Z,10.95
2023-03-06T08:21:24.120Z,10.44
2023-03-06T08:23:55.003Z,10.02
2023-03-06T08:26:24.553Z,9.96
2023-03-06T08:28:53.307Z,9.93
2023-03-06T08:31:27.518Z,9.84
2023-03-06T08:33:56.191Z,9.76
2023-03-06T08:36:24.843Z,9.94
2023-03-06T08:38:53.232Z,10.09
2023-03-06T08:41:21.565Z,9.99
2023-03-06T08:43:51.221Z,10.13
2023-03-06T08:46:19.886Z,10.37
2023-03-06T08:48:49.289Z,10.48
2023-03-06T08:51:17.964Z,10.64
2023-03-06T08:53:46.377Z,10.79
2023-03-06T08:56:15.807Z,11.10
2023-03-06T08:58:44.062Z,11.76
2023-03-06T09:01:19.703Z,12.18
2023-03-06T09:04:08.809Z,12.12
2023-03-06T09:06:40.247Z,11.87
2023-03-06T09:09:08.501Z,11.79
2023-03-06T09:11:37.117Z,12.13
2023-03-06T09:14:05.757Z,12.44
2023-03-06T09:16:34.017Z,12.59
2023-03-06T09:19:02.343Z,12.76
2023-03-06T09:21:30.600Z,12.89
2023-03-06T09:24:04.472Z,12.99
2023-03-06T09:26:45.099Z,13.21
2023-03-06T09:29:16.462Z,13.63
2023-03-06T09:31:45.192Z,13.73
2023-03-06T09:34:13.793Z,13.78
2023-03-06T09:36:55.877Z,14.19
2023-03-06T09:39:25.592Z,14.71
2023-03-06T09:41:53.844Z,15.31
2023-03-06T09:44:23.173Z,15.92
2023-03-06T09:47:03.244Z,16.03
2023-03-06T09:49:31.633Z,16.02
2023-03-06T09:52:15.136Z,16.29
2023-03-06T09:54:46.269Z,16.46
2023-03-06T09:57:22.149Z,16.30
2023-03-06T09:59:51.841Z,16.07
2023-03-06T10:02:23.908Z,15.41
2023-03-06T10:04:54.959Z,14.50
2023-03-06T10:07:24.133Z,13.64
2023-03-06T10:10:00.197Z,13.01
2023-03-06T10:12:29.461Z,12.41
2023-03-06T10:14:59.809Z,12.21
2023-03-06T10:17:37.946Z,12.13
2023-03-06T10:20:19.107Z,11.94
2023-03-06T10:23:01.307Z,11.99
2023-03-06T10:25:52.832Z,12.07
2023-03-06T10:28:22.978Z,11.93
2023-03-06T10:30:53.311Z,11.85
2023-03-06T10:33:27.472Z,11.72
2023-03-06T10:35:56.238Z,11.64
2023-03-06T10:38:26.119Z,11.46
2023-03-06T10:41:03.950Z,11.23
2023-03-06T10:43:36.256Z,11.08
2023-03-06T10:46:07.528Z,11.10
2023-03-06T10:48:39.415Z,11.21
2023-03-06T10:51:22.127Z,11.37
2023-03-06T10:53:53.380Z,11.28
2023-03-06T10:56:33.650Z,10.93
2023-03-06T10:59:06.217Z,10.62
2023-03-06T11:01:43.791Z,10.28
2023-03-06T11:04:22.254Z,10.00
2023-03-06T11:07:09.310Z,9.93
2023-03-06T11:09:38.430Z,9.92
2023-03-06T11:12:22.322Z,9.91
2023-03-06T11:15:09.375Z,9.74
2023-03-06T11:17:48.049Z,9.56
2023-03-06T11:20:27.796Z,9.41
2023-03-06T11:23:15.362Z,9.40
2023-03-06T11:25:48.663Z,9.57
2023-03-06T11:28:22.699Z,9.86
2023-03-06T11:31:14.272Z,10.01
2023-03-06T11:33:46.678Z,9.97
2023-03-06T11:36:38.667Z,9.89
2023-03-06T11:39:23.576Z,9.95
2023-03-06T11:42:01.477Z,10.32
2023-03-06T11:44:36.823Z,10.36
2023-03-06T11:47:05.085Z,10.22
2023-03-06T11:49:35.140Z,10.11
2023-03-06T11:52:12.734Z,9.99
2023-03-06T11:54:40.880Z,9.85
2023-03-06T11:57:34.201Z,9.86
2023-03-06T12:00:13.917Z,9.91
2023-03-06T12:02:46.891Z,9.72
2023-03-06T12:05:24.623Z,9.66
2023-03-06T12:08:04.844Z,9.64
2023-03-06T12:10:39.110Z,9.59
2023-03-06T12:13:28.141Z,9.49
2023-03-06T12:16:02.051Z,9.32
2023-03-06T12:18:49.345Z,9.15
2023-03-06T12:21:35.953Z,9.00
2023-03-06T12:24:17.314Z,8.77
2023-03-06T12:27:04.839Z,8.62
2023-03-06T12:29:35.953Z,8.55
2023-03-06T12:32:10.698Z,8.44
2023-03-06T12:34:57.741Z,8.34
2023-03-06T12:37:29.036Z,8.33
2023-03-06T12:40:06.860Z,8.37
2023-03-06T12:42:54.224Z,8.47
2023-03-06T12:45:22.534Z,8.53
2023-03-06T12:47:55.741Z,8.53
2023-03-06T12:50:26.319Z,8.56
2023-03-06T12:52:55.429Z,8.43
2023-03-06T12:55:26.943Z,8.25
2023-03-06T12:57:56.007Z,8.19
2023-03-06T13:00:37.404Z,8.19
2023-03-06T13:03:05.809Z,8.18
2023-03-06T13:05:56.671Z,8.19
2023-03-06T13:08:46.715Z,8.18
2023-03-06T13:11:18.886Z,8.06
2023-03-06T13:13:47.360Z,7.97
2023-03-06T13:16:18.761Z,7.92
2023-03-06T13:18:54.714Z,7.90
2023-03-06T13:21:43.241Z,7.91
2023-03-06T13:24:15.772Z,7.90
2023-03-06T13:26:44.592Z,7.83
2023-03-06T13:29:36.035Z,7.67
2023-03-06T13:32:04.512Z,7.53
2023-03-06T13:34:37.327Z,7.41
2023-03-06T13:37:17.875Z,7.35
2023-03-06T13:39:52.405Z,7.34
2023-03-06T13:42:30.002Z,7.39
2023-03-06T13:44:58.863Z,7.46
2023-03-06T13:47:31.158Z,7.50
2023-03-06T13:49:59.604Z,7.52
2023-03-06T13:52:39.734Z,7.53
2023-03-06T13:55:11.450Z,7.52
2023-03-06T13:57:58.734Z,7.43
2023-03-06T14:00:37.739Z,7.26
2023-03-06T14:03:25.332Z,7.07
2023-03-06T14:05:54.290Z,6.98
2023-03-06T14:08:31.912Z,6.90
2023-03-06T14:11:17.840Z,6.80
2023-03-06T14:13:51.032Z,6.65
2023-03-06T14:16:20.729Z,6.55
2023-03-06T14:18:51.916Z,6.48
2023-03-06T14:21:26.113Z,6.41
2023-03-06T14:24:00.309Z,6.33
2023-03-06T14:26:29.612Z,6.22
2023-03-06T14:28:58.769Z,6.11
2023-03-06T14:31:28.531Z,5.98
2023-03-06T14:33:57.078Z,5.90
2023-03-06T14:36:37.307Z,5.85
2023-03-06T14:39:08.941Z,5.83
2023-03-06T14:41:37.205Z,5.83
2023-03-06T14:44:26.736Z,5.83
2023-03-06T14:46:55.789Z,5.82
2023-03-06T14:49:24.679Z,5.79
2023-03-06T14:51:56.714Z,5.75
2023-03-06T14:54:27.374Z,5.71
2023-03-06T14:56:57.732Z,5.67
2023-03-06T14:59:26.519Z,5.61
2023-03-06T15:01:59.386Z,5.56
2023-03-06T15:04:27.649Z,5.53
2023-03-06T15:06:56.336Z,5.49
2023-03-06T15:09:25.688Z,5.47
2023-03-06T15:11:58.980Z,5.44
2023-03-06T15:14:29.005Z,5.40
2023-03-06T15:16:57.320Z,5.39
2023-03-06T15:19:25.542Z,5.37
2023-03-06T15:21:53.936Z,5.34
2023-03-06T15:24:35.465Z,5.32
2023-03-06T15:27:04.921Z,5.31
2023-03-06T15:29:33.250Z,5.29
2023-03-06T15:32:14.865Z,5.26
2023-03-06T15:34:43.241Z,5.24
2023-03-06T15:37:20.006Z,5.22
2023-03-06T15:40:01.157Z,5.20
2023-03-06T15:42:29.477Z,5.19
2023-03-06T15:44:58.626Z,5.18
2023-03-06T15:47:27.116Z,5.15
2023-03-06T15:49:57.157Z,5.15
2023-03-06T15:52:25.652Z,5.14
2023-03-06T15:54:54.499Z,5.11
2023-03-06T15:57:26.500Z,5.09
2023-03-06T15:59:56.206Z,5.03
2023-03-06T16:02:26.161Z,4.95
2023-03-06T16:04:54.552Z,4.87
2023-03-06T16:07:23.194Z,4.80
2023-03-06T16:09:51.719Z,4.73
2023-03-06T16:12:20.797Z,4.66
2023-03-06T16:14:49.363Z,4.61
2023-03-06T16:17:17.790Z,4.54
2023-03-06T16:19:45.975Z,4.44
2023-03-06T16:22:14.641Z,4.33
2023-03-06T16:24:43.572Z,4.21
2023-03-06T16:27:17.714Z,4.08
2023-03-06T16:29:49.540Z,3.96
2023-03-06T16:32:17.850Z,3.89
2023-03-06T16:34:46.447Z,3.83
2023-03-06T16:37:16.685Z,3.79
2023-03-06T16:39:45.209Z,3.75
2023-03-06T16:42:13.417Z,3.70
2023-03-06T16:44:41.818Z,3.67
2023-03-06T16:47:12.807Z,3.62
2023-03-06T16:49:42.528Z,3.58
2023-03-06T16:52:11.249Z,3.53
2023-03-06T16:54:44.763Z,3.50
2023-03-06T16:57:14.343Z,3.48
2023-03-06T16:59:42.504Z,3.47
2023-03-06T17:02:12.413Z,3.46
2023-03-06T17:04:40.602Z,3.45
2023-03-06T17:07:09.392Z,3.45
2023-03-06T17:09:37.783Z,3.47
2023-03-06T17:12:06.596Z,3.48
2023-03-06T17:14:38.607Z,3.50
2023-03-06T17:17:07.521Z,3.51
2023-03-06T17:19:36.260Z,3.53
2023-03-06T17:22:05.395Z,3.55
2023-03-06T17:24:35.207Z,3.57
2023-03-06T17:27:06.085Z,3.61
2023-03-06T17:29:34.410Z,3.65
2023-03-06T17:32:03.657Z,3.67
2023-03-06T17:34:32.834Z,3.67
2023-03-06T17:37:01.563Z,3.65
2023-03-06T17:39:33.457Z,3.65
2023-03-06T17:42:03.517Z,3.62
2023-03-06T17:44:34.656Z,3.62
2023-03-06T17:47:02.889Z,3.65
2023-03-06T17:49:31.370Z,3.67
2023-03-06T17:52:01.174Z,3.69
2023-03-06T17:54:30.380Z,3.71
2023-03-06T17:57:01.348Z,3.71
2023-03-06T17:59:29.919Z,3.69
2023-03-06T18:01:59.802Z,3.69
2023-03-06T18:04:28.288Z,3.68
2023-03-06T18:06:58.437Z,3.64
2023-03-06T18:09:27.593Z,3.59
2023-03-06T18:11:56.527Z,3.57
2023-03-06T18:14:25.084Z,3.58
2023-03-06T18:16:54.270Z,3.59
2023-03-06T18:19:22.643Z,3.59
2023-03-06T18:21:50.715Z,3.59
2023-03-06T18:24:19.166Z,3.61
2023-03-06T18:26:47.543Z,3.62
2023-03-06T18:29:16.692Z,3.65
2023-03-06T18:31:47.598Z,3.66
2023-03-06T18:34:17.948Z,3.66
2023-03-06T18:36:50.896Z,3.66
2023-03-06T18:39:19.472Z,3.65
2023-03-06T18:41:47.779Z,3.63
2023-03-06T18:44:17.636Z,3.62
2023-03-06T18:46:45.919Z,3.62
2023-03-06T18:49:18.041Z,3.62
2023-03-06T18:51:51.293Z,3.59
2023-03-06T18:54:19.786Z,3.57
2023-03-06T18:56:48.246Z,3.56
2023-03-06T18:59:36.380Z,3.53
2023-03-06T19:02:05.083Z,3.51
2023-03-06T19:04:33.485Z,3.48
2023-03-06T19:07:02.498Z,3.45
2023-03-06T19:09:30.828Z,3.42
2023-03-06T19:12:00.378Z,3.40
2023-03-06T19:14:30.472Z,3.38
2023-03-06T19:16:58.777Z,3.35
2023-03-06T19:19:31.488Z,3.33
2023-03-06T19:22:00.355Z,3.32
2023-03-06T19:24:35.197Z,3.31
2023-03-06T19:27:05.174Z,3.28
2023-03-06T19:29:33.703Z,3.28
2023-03-06T19:32:03.566Z,3.28
2023-03-06T19:34:32.023Z,3.27
2023-03-06T19:37:03.634Z,3.27
2023-03-06T19:39:33.897Z,3.26
2023-03-06T19:42:04.737Z,3.27
2023-03-06T19:44:35.038Z,3.28
2023-03-06T19:47:03.247Z,3.29
2023-03-06T19:49:33.060Z,3.29
2023-03-06T19:52:01.390Z,3.30
2023-03-06T19:54:32.419Z,3.30
2023-03-06T19:57:01.779Z,3.30
2023-03-06T19:59:33.872Z,3.30
2023-03-06T20:02:02.287Z,3.30
2023-03-06T20:04:34.372Z,3.32
2023-03-06T20:07:04.970Z,3.31
2023-03-06T20:09:35.814Z,3.31
2023-03-06T20:12:08.469Z,3.30
2023-03-06T20:14:37.611Z,3.27
2023-03-06T20:17:05.929Z,3.24
2023-03-06T20:19:34.679Z,3.21
2023-03-06T20:22:03.498Z,3.17
2023-03-06T20:24:31.954Z,3.12
2023-03-06T20:27:00.353Z,3.06
2023-03-06T20:29:28.641Z,3.03
2023-03-06T20:32:02.735Z,2.99
2023-03-06T20:34:32.133Z,2.97
2023-03-06T20:37:00.589Z,2.95
2023-03-06T20:39:30.805Z,2.94
2023-03-06T20:42:00.226Z,2.93
2023-03-06T20:44:28.634Z,2.93
2023-03-06T20:46:56.938Z,2.92
2023-03-06T20:49:27.159Z,2.91
2023-03-06T20:51:56.898Z,2.90
2023-03-06T20:54:25.165Z,2.89
2023-03-06T20:56:53.461Z,2.87
2023-03-06T20:59:22.046Z,2.86
2023-03-06T21:01:50.257Z,2.85
2023-03-06T21:04:18.620Z,2.82
2023-03-06T21:06:48.380Z,2.80
2023-03-06T21:09:17.175Z,2.77
2023-03-06T21:11:45.773Z,2.75
2023-03-06T21:14:15.611Z,2.72
2023-03-06T21:16:43.993Z,2.70
2023-03-06T21:19:20.062Z,2.69
2023-03-06T21:21:50.629Z,2.68
2023-03-06T21:24:21.282Z,2.69
2023-03-06T21:26:51.422Z,2.69
2023-03-06T21:29:19.705Z,2.69
2023-03-06T21:31:48.915Z,2.68
2023-03-06T21:34:17.257Z,2.68
2023-03-06T21:36:45.552Z,2.68
2023-03-06T21:39:14.258Z,2.70
2023-03-06T21:41:42.488Z,2.71
2023-03-06T21:44:11.402Z,2.73
2023-03-06T21:46:41.976Z,2.76
2023-03-06T21:49:10.842Z,2.78
2023-03-06T21:51:40.744Z,2.80
2023-03-06T21:54:09.897Z,2.80
2023-03-06T21:56:38.434Z,2.79
2023-03-06T21:59:06.592Z,2.77
2023-03-06T22:01:38.290Z,2.76
2023-03-06T22:04:06.998Z,2.75
2023-03-06T22:06:35.326Z,2.74
2023-03-06T22:09:04.547Z,2.73
2023-03-06T22:11:37.044Z,2.73
2023-03-06T22:14:07.322Z,2.74
2023-03-06T22:16:38.605Z,2.74
2023-03-06T22:19:07.648Z,2.73
2023-03-06T22:21:35.928Z,2.72
2023-03-06T22:24:05.991Z,2.71
2023-03-06T22:26:34.987Z,2.71
2023-03-06T22:29:07.418Z,2.72
2023-03-06T22:31:39.285Z,2.73
2023-03-06T22:34:08.432Z,2.75
2023-03-06T22:36:36.688Z,2.76
2023-03-06T22:39:07.817Z,2.78
2023-03-06T22:41:36.450Z,2.80
2023-03-06T22:44:05.111Z,2.83
2023-03-06T22:46:34.078Z,2.87
2023-03-06T22:49:02.666Z,2.91
2023-03-06T22:51:32.098Z,2.95
2023-03-06T22:54:00.781Z,2.94
2023-03-06T22:56:30.438Z,2.94
2023-03-06T22:58:58.789Z,2.93
2023-03-06T23:01:28.214Z,2.89
2023-03-06T23:03:57.665Z,2.85
2023-03-06T23:06:30.827Z,2.81
2023-03-06T23:09:06.078Z,2.77
2023-03-06T23:11:53.027Z,2.71
2023-03-06T23:14:41.470Z,2.64
2023-03-06T23:17:33.565Z,2.58
2023-03-06T23:20:20.389Z,2.51
2023-03-06T23:23:07.265Z,2.46
2023-03-06T23:25:44.808Z,2.44
2023-03-06T23:28:13.172Z,2.38
2023-03-06T23:30:41.701Z,2.32
2023-03-06T23:33:10.344Z,2.26
2023-03-06T23:35:40.480Z,2.18
2023-03-06T23:38:08.818Z,2.06
2023-03-06T23:40:38.041Z,1.93
2023-03-06T23:43:06.394Z,1.85
2023-03-06T23:45:34.996Z,1.80
2023-03-06T23:48:05.457Z,1.78
2023-03-06T23:50:33.757Z,1.78
2023-03-06T23:53:03.639Z,1.77
2023-03-06T23:55:31.965Z,1.74
2023-03-06T23:58:10.398Z,1.70
